createdAt,value
2019-03-22T18:24:29.846Z,-0.53
2019-03-22T18:28:33.437Z,-0.64
2019-03-22T18:32:37.340Z,-0.80
2019-03-22T18:36:40.918Z,-0.94
2019-03-22T18:40:44.598Z,-1.02
2019-03-22T18:44:48.910Z,-1.02
2019-03-22T18:48:52.482Z,-0.99
2019-03-22T18:52:56.265Z,-1.05
2019-03-22T18:56:59.803Z,-1.04
2019-03-22T19:01:03.497Z,-0.99
2019-03-22T19:05:09.551Z,-0.90
2019-03-22T19:09:13.045Z,-0.90
2019-03-22T19:13:16.685Z,-0.84
2019-03-22T19:17:20.284Z,-0.77
2019-03-22T19:21:23.836Z,-0.72
2019-03-22T19:25:27.771Z,-0.67
2019-03-22T19:29:32.962Z,-0.70
2019-03-22T19:33:38.088Z,-0.60
2019-03-22T19:37:41.769Z,-0.68
2019-03-22T19:41:45.599Z,-0.61
2019-03-22T19:45:49.181Z,-0.68
2019-03-22T19:49:54.619Z,-0.76
2019-03-22T19:53:58.304Z,-0.61
2019-03-22T19:58:03.649Z,-0.62
2019-03-22T20:02:14.688Z,-0.60
2019-03-22T20:06:20.692Z,-0.71
2019-03-22T20:10:24.331Z,-0.76
2019-03-22T20:14:27.847Z,-0.63
2019-03-22T20:18:31.668Z,-0.52
2019-03-22T20:22:35.440Z,-0.46
2019-03-22T20:26:39.305Z,-0.09
2019-03-22T20:30:43.172Z,0.49
2019-03-22T20:34:46.905Z,0.62
2019-03-22T20:38:50.350Z,0.54
2019-03-22T20:42:53.950Z,0.54
2019-03-22T20:46:57.473Z,0.25
2019-03-22T20:51:01.126Z,0.00
2019-03-22T20:55:07.281Z,-0.23
2019-03-22T20:59:11.052Z,-0.51
2019-03-22T21:03:14.741Z,-0.67
2019-03-22T21:07:18.442Z,-0.76
2019-03-22T21:11:22.025Z,-0.72
2019-03-22T21:15:25.783Z,-0.75
2019-03-22T21:19:29.375Z,-0.82
2019-03-22T21:23:36.599Z,-0.84
2019-03-22T21:27:38.361Z,-0.81
2019-03-22T21:31:42.206Z,-0.82
2019-03-22T21:35:46.784Z,-0.89
2019-03-22T21:39:50.358Z,-0.85
2019-03-22T21:43:54.056Z,-0.86
2019-03-22T21:47:57.549Z,-0.83
2019-03-22T21:52:01.043Z,-0.88
2019-03-22T21:56:04.687Z,-0.97
2019-03-22T22:00:08.590Z,-1.03
2019-03-22T22:04:12.103Z,-0.96
2019-03-22T22:08:15.462Z,-0.86
2019-03-22T22:12:19.151Z,-0.83
2019-03-22T22:16:22.687Z,-0.80
2019-03-22T22:20:29.125Z,-0.78
2019-03-22T22:24:31.611Z,-0.73
2019-03-22T22:28:35.412Z,-0.69
2019-03-22T22:32:39.589Z,-0.71
2019-03-22T22:36:43.238Z,-0.81
2019-03-22T22:40:46.841Z,-1.00
2019-03-22T22:44:50.383Z,-1.06
2019-03-22T22:48:53.830Z,-1.11
2019-03-22T22:52:57.326Z,-1.05
2019-03-22T22:57:00.885Z,-1.00
2019-03-22T23:01:04.335Z,-0.87
2019-03-22T23:05:08.168Z,-0.69
2019-03-22T23:09:12.047Z,-0.63
2019-03-22T23:13:15.768Z,-0.58
2019-03-22T23:17:19.282Z,-0.53
2019-03-22T23:21:22.749Z,-0.47
2019-03-22T23:25:26.281Z,-0.48
2019-03-22T23:29:29.872Z,-0.48
2019-03-22T23:33:33.559Z,-0.53
2019-03-22T23:37:38.000Z,-0.61
2019-03-22T23:41:41.807Z,-0.58
2019-03-22T23:45:45.534Z,-0.53
2019-03-22T23:49:49.101Z,-0.50
2019-03-22T23:53:54.735Z,-0.39
2019-03-22T23:57:58.290Z,-0.34
